createdAt,value
2018-12-18T00:00:43.484Z,98.87
2018-12-18T00:01:43.468Z,99.43
2018-12-18T00:02:43.462Z,99.29
2018-12-18T00:03:43.465Z,99.18
2018-12-18T00:04:43.435Z,98.97
2018-12-18T00:05:43.425Z,98.66
2018-12-18T00:06:43.414Z,99.08
2018-12-18T00:07:44.493Z,99.18
2018-12-18T00:08:43.411Z,98.97
2018-12-18T00:09:43.400Z,98.97
2018-12-18T00:10:43.377Z,99.08
2018-12-18T00:11:43.361Z,99.39
2018-12-18T00:12:43.355Z,99.29
2018-12-18T00:13:43.360Z,98.66
2018-12-18T00:14:43.331Z,99.29
2018-12-18T00:15:43.321Z,99.08
2018-12-18T00:16:43.308Z,98.77
2018-12-18T00:17:43.302Z,98.77
2018-12-18T00:18:43.289Z,98.66
2018-12-18T00:19:43.294Z,98.66
2018-12-18T00:20:43.266Z,98.77
2018-12-18T00:21:43.255Z,98.66
2018-12-18T00:22:43.250Z,98.66
2018-12-18T00:23:43.249Z,98.66
2018-12-18T00:24:43.224Z,98.56
2018-12-18T00:25:43.212Z,98.61
2018-12-18T00:26:43.202Z,98.56
2018-12-18T00:27:43.262Z,98.46
2018-12-18T00:28:43.197Z,98.66
2018-12-18T00:29:43.188Z,98.66
2018-12-18T00:30:43.178Z,98.56
2018-12-18T00:31:43.148Z,98.35
2018-12-18T00:32:43.137Z,98.77
2018-12-18T00:33:46.094Z,98.46
2018-12-18T00:34:43.120Z,98.56
2018-12-18T00:35:43.122Z,98.56
2018-12-18T00:36:43.098Z,98.46
2018-12-18T00:37:43.085Z,98.66
2018-12-18T00:38:43.130Z,98.46
2018-12-18T00:39:43.065Z,98.46
2018-12-18T00:40:43.072Z,98.56
2018-12-18T00:41:43.060Z,98.77
2018-12-18T00:42:43.034Z,98.66
2018-12-18T00:43:43.021Z,98.46
2018-12-18T00:44:43.024Z,98.46
2018-12-18T00:45:43.000Z,98.56
2018-12-18T00:46:43.024Z,98.66
2018-12-18T00:47:42.978Z,98.46
2018-12-18T00:48:42.970Z,98.66
2018-12-18T00:49:42.958Z,98.56
2018-12-18T00:50:42.946Z,98.66
2018-12-18T00:51:42.938Z,98.77
2018-12-18T00:52:42.940Z,98.66
2018-12-18T00:53:42.917Z,98.66
2018-12-18T00:54:42.904Z,98.77
2018-12-18T00:55:42.895Z,98.77
2018-12-18T00:56:42.902Z,98.66
2018-12-18T00:57:42.874Z,99.39
2018-12-18T00:58:42.862Z,99.29
2018-12-18T00:59:42.850Z,99.29
2018-12-18T01:00:42.842Z,99.18
2018-12-18T01:01:42.830Z,99.18
2018-12-18T01:02:42.836Z,99.29
2018-12-18T01:03:42.814Z,99.18
2018-12-18T01:04:42.797Z,98.97
2018-12-18T01:05:42.816Z,98.87
2018-12-18T01:06:42.775Z,99.08
2018-12-18T01:07:42.766Z,99.08
2018-12-18T01:08:42.768Z,98.77
2018-12-18T01:09:42.743Z,98.97
2018-12-18T01:10:42.732Z,98.87
2018-12-18T01:11:42.721Z,98.87
2018-12-18T01:12:42.712Z,98.87
2018-12-18T01:13:42.717Z,99.18
2018-12-18T01:14:42.689Z,99.29
2018-12-18T01:15:42.678Z,99.29
2018-12-18T01:16:42.670Z,99.39
2018-12-18T01:17:42.660Z,98.97
2018-12-18T01:18:42.664Z,99.29
2018-12-18T01:19:42.636Z,99.29
2018-12-18T01:20:42.644Z,99.18
2018-12-18T01:21:42.617Z,99.80
2018-12-18T01:22:42.607Z,98.97
2018-12-18T01:23:42.614Z,99.60
2018-12-18T01:24:42.584Z,99.18
2018-12-18T01:25:42.572Z,98.77
2018-12-18T01:26:42.564Z,98.77
2018-12-18T01:27:42.550Z,98.66
2018-12-18T01:28:42.677Z,98.97
2018-12-18T01:29:42.530Z,98.97
2018-12-18T01:30:42.518Z,99.60
2018-12-18T01:31:42.513Z,99.18
2018-12-18T01:32:42.498Z,98.66
2018-12-18T01:33:42.491Z,99.08
2018-12-18T01:34:42.495Z,99.70
2018-12-18T01:35:42.483Z,98.66
2018-12-18T01:36:42.458Z,98.77
2018-12-18T01:37:42.447Z,98.56
2018-12-18T01:38:42.435Z,98.56
2018-12-18T01:39:42.439Z,98.66
2018-12-18T01:40:42.430Z,99.18
2018-12-18T01:41:42.405Z,99.80
2018-12-18T01:42:42.393Z,98.66
2018-12-18T01:43:42.380Z,98.66
2018-12-18T01:44:42.372Z,98.66
2018-12-18T01:45:42.375Z,98.77
2018-12-18T01:46:42.350Z,98.77
2018-12-18T01:47:42.341Z,98.56
2018-12-18T01:48:42.329Z,99.08
2018-12-18T01:49:42.318Z,99.08
2018-12-18T01:50:42.324Z,99.08
2018-12-18T01:51:42.326Z,98.77
2018-12-18T01:52:42.284Z,98.77
2018-12-18T01:53:42.277Z,98.56
2018-12-18T01:54:42.263Z,98.66
2018-12-18T01:55:42.255Z,99.80
2018-12-18T01:56:42.244Z,98.66
2018-12-18T01:57:42.258Z,98.46
2018-12-18T01:58:42.221Z,98.56
2018-12-18T01:59:42.213Z,98.56
2018-12-18T02:00:42.205Z,98.56
2018-12-18T02:01:42.219Z,98.66
2018-12-18T02:02:42.179Z,99.08
2018-12-18T02:03:42.183Z,98.66
2018-12-18T02:04:42.158Z,98.97
2018-12-18T02:05:42.146Z,98.56
2018-12-18T02:06:42.135Z,98.66
2018-12-18T02:07:42.140Z,98.77
2018-12-18T02:08:42.114Z,99.39
2018-12-18T02:09:42.104Z,99.70
2018-12-18T02:10:42.093Z,99.08
2018-12-18T02:11:42.087Z,99.18
2018-12-18T02:12:42.086Z,99.29
2018-12-18T02:13:42.064Z,99.18
2018-12-18T02:14:42.050Z,98.97
2018-12-18T02:15:42.039Z,99.18
2018-12-18T02:16:42.031Z,98.83
2018-12-18T02:17:42.046Z,98.87
2018-12-18T02:18:42.016Z,98.97
2018-12-18T02:19:41.999Z,98.87
2018-12-18T02:20:41.988Z,99.08
2018-12-18T02:21:41.977Z,99.08
2018-12-18T02:22:41.964Z,99.08
2018-12-18T02:23:41.969Z,98.87
2018-12-18T02:24:41.942Z,99.29
2018-12-18T02:25:41.935Z,98.97
2018-12-18T02:26:41.923Z,99.34
2018-12-18T02:27:41.924Z,99.29
2018-12-18T02:28:41.932Z,98.93
2018-12-18T02:29:41.893Z,98.66
2018-12-18T02:30:41.883Z,98.77
2018-12-18T02:31:41.868Z,98.62
2018-12-18T02:32:41.857Z,98.72
2018-12-18T02:33:41.847Z,98.62
2018-12-18T02:34:41.851Z,98.77
2018-12-18T02:35:41.828Z,98.77
2018-12-18T02:36:41.818Z,98.66
2018-12-18T02:37:41.808Z,98.56
2018-12-18T02:38:41.825Z,98.56
2018-12-18T02:39:41.785Z,98.56
2018-12-18T02:40:41.776Z,98.46
2018-12-18T02:41:41.769Z,98.56
2018-12-18T02:42:41.753Z,98.56
2018-12-18T02:43:41.743Z,98.66
2018-12-18T02:44:41.755Z,98.56
2018-12-18T02:45:41.722Z,98.46
2018-12-18T02:46:41.708Z,98.56
2018-12-18T02:47:41.701Z,98.56
2018-12-18T02:48:41.693Z,98.56
2018-12-18T02:49:41.679Z,98.46
2018-12-18T02:50:41.689Z,98.46
2018-12-18T02:51:41.656Z,98.56
2018-12-18T02:52:41.647Z,98.46
2018-12-18T02:53:41.655Z,98.77
2018-12-18T02:54:41.625Z,98.66
2018-12-18T02:55:41.627Z,98.56
2018-12-18T02:56:41.602Z,98.46
2018-12-18T02:57:41.593Z,98.25
2018-12-18T02:58:41.606Z,98.77
2018-12-18T02:59:41.576Z,98.56
2018-12-18T03:00:41.601Z,98.77
2018-12-18T03:01:41.629Z,98.25
2018-12-18T03:02:41.540Z,98.77
2018-12-18T03:03:41.528Z,98.77
2018-12-18T03:04:41.526Z,98.66
2018-12-18T03:05:41.506Z,98.77
2018-12-18T03:06:41.511Z,98.66
2018-12-18T03:07:41.485Z,98.77
2018-12-18T03:08:41.479Z,98.87
2018-12-18T03:09:41.466Z,98.35
2018-12-18T03:10:41.456Z,98.46
2018-12-18T03:11:41.456Z,98.56
2018-12-18T03:12:41.432Z,98.15
2018-12-18T03:13:41.422Z,98.46
2018-12-18T03:14:41.416Z,98.15
2018-12-18T03:15:41.404Z,98.35
2018-12-18T03:16:41.405Z,98.66
2018-12-18T03:17:41.396Z,98.05
2018-12-18T03:18:41.375Z,98.05
2018-12-18T03:19:41.358Z,97.84
2018-12-18T03:20:41.348Z,97.84
2018-12-18T03:21:41.369Z,97.74
2018-12-18T03:22:41.327Z,97.84
2018-12-18T03:23:41.321Z,97.94
2018-12-18T03:24:41.308Z,97.74
2018-12-18T03:25:41.299Z,97.74
2018-12-18T03:26:41.283Z,97.74
2018-12-18T03:27:41.292Z,97.94
2018-12-18T03:28:41.262Z,97.78
2018-12-18T03:29:41.259Z,97.94
2018-12-18T03:30:41.245Z,97.94
2018-12-18T03:31:41.234Z,97.94
2018-12-18T03:32:41.262Z,97.94
2018-12-18T03:33:41.210Z,97.74
2018-12-18T03:34:41.214Z,97.94
2018-12-18T03:35:41.189Z,97.74
2018-12-18T03:36:41.175Z,97.84
2018-12-18T03:37:41.165Z,97.84
2018-12-18T03:38:41.170Z,97.84
2018-12-18T03:39:41.167Z,97.63
2018-12-18T03:40:41.135Z,97.84
2018-12-18T03:41:41.125Z,97.94
2018-12-18T03:42:41.113Z,97.94
2018-12-18T03:43:41.116Z,97.84
2018-12-18T03:44:41.108Z,97.94
2018-12-18T03:45:41.080Z,97.88
2018-12-18T03:46:41.072Z,97.63
2018-12-18T03:47:41.060Z,97.67
2018-12-18T03:48:41.049Z,97.63
2018-12-18T03:49:41.057Z,97.67
2018-12-18T03:50:41.030Z,97.84
2018-12-18T03:51:41.019Z,97.84
2018-12-18T03:52:41.005Z,98.19
2018-12-18T03:53:40.998Z,97.78
2018-12-18T03:54:40.999Z,97.78
2018-12-18T03:55:40.974Z,97.88
2018-12-18T03:56:40.970Z,97.74
2018-12-18T03:57:40.954Z,97.99
2018-12-18T03:58:40.945Z,97.78
2018-12-18T03:59:40.954Z,97.57
2018-12-18T04:00:40.921Z,97.88
2018-12-18T04:01:40.912Z,97.78
2018-12-18T04:02:40.902Z,97.99
2018-12-18T04:03:40.889Z,97.78
2018-12-18T04:04:40.882Z,97.88
2018-12-18T04:05:40.883Z,97.88
2018-12-18T04:06:40.873Z,98.40
2018-12-18T04:07:40.847Z,97.78
2018-12-18T04:08:40.850Z,97.67
2018-12-18T04:09:40.825Z,97.78
2018-12-18T04:10:40.815Z,97.88
2018-12-18T04:11:40.806Z,97.78
2018-12-18T04:12:40.812Z,97.99
2018-12-18T04:13:40.786Z,97.99
2018-12-18T04:14:40.775Z,97.67
2018-12-18T04:15:40.763Z,98.09
2018-12-18T04:16:40.751Z,98.09
2018-12-18T04:17:40.757Z,97.99
2018-12-18T04:18:40.831Z,97.99
2018-12-18T04:19:40.723Z,97.78
2018-12-18T04:20:40.714Z,97.78
2018-12-18T04:21:40.699Z,97.78
2018-12-18T04:22:40.690Z,97.78
2018-12-18T04:23:40.677Z,97.99
2018-12-18T04:24:40.683Z,97.99
2018-12-18T04:25:40.655Z,97.99
2018-12-18T04:26:40.649Z,97.99
2018-12-18T04:27:40.636Z,97.99
2018-12-18T04:28:40.626Z,97.88
2018-12-18T04:29:40.615Z,97.88
2018-12-18T04:30:40.618Z,97.57
2018-12-18T04:31:40.592Z,97.99
2018-12-18T04:32:40.580Z,97.78
2018-12-18T04:33:40.612Z,97.57
2018-12-18T04:34:43.192Z,97.99
2018-12-18T04:35:40.547Z,97.99
2018-12-18T04:36:40.536Z,97.99
2018-12-18T04:37:40.529Z,97.99
2018-12-18T04:38:40.516Z,97.99
2018-12-18T04:39:40.523Z,97.99
2018-12-18T04:40:40.496Z,97.99
2018-12-18T04:41:40.486Z,97.99
2018-12-18T04:42:40.476Z,98.09
2018-12-18T04:43:40.485Z,97.99
2018-12-18T04:44:40.466Z,97.99
2018-12-18T04:45:40.442Z,97.78
2018-12-18T04:46:40.431Z,97.99
2018-12-18T04:47:40.432Z,98.09
2018-12-18T04:48:40.409Z,97.78
2018-12-18T04:49:40.424Z,98.09
2018-12-18T04:50:40.394Z,97.78
2018-12-18T04:51:40.375Z,97.36
2018-12-18T04:52:40.365Z,97.57
2018-12-18T04:53:40.354Z,97.36
2018-12-18T04:54:40.345Z,97.26
2018-12-18T04:55:40.349Z,97.26
2018-12-18T04:56:40.321Z,97.26
2018-12-18T04:57:40.313Z,97.16
2018-12-18T04:58:40.300Z,97.78
2018-12-18T04:59:40.308Z,97.57
2018-12-18T05:00:40.290Z,97.57
2018-12-18T05:01:40.269Z,97.06
2018-12-18T05:02:40.258Z,97.26
2018-12-18T05:03:40.251Z,97.16
2018-12-18T05:04:40.254Z,96.75
2018-12-18T05:05:40.278Z,96.64
2018-12-18T05:06:40.218Z,96.64
2018-12-18T05:07:40.209Z,96.85
2018-12-18T05:08:40.201Z,96.75
2018-12-18T05:09:40.184Z,96.75
2018-12-18T05:10:40.182Z,96.33
2018-12-18T05:11:40.179Z,96.64
2018-12-18T05:12:40.213Z,96.33
2018-12-18T05:13:40.141Z,96.64
2018-12-18T05:14:40.130Z,96.64
2018-12-18T05:15:40.121Z,96.54
2018-12-18T05:16:40.120Z,96.44
2018-12-18T05:17:40.102Z,96.44
2018-12-18T05:18:40.089Z,96.44
2018-12-18T05:19:40.079Z,96.54
2018-12-18T05:20:40.067Z,96.54
2018-12-18T05:21:40.085Z,96.44
2018-12-18T05:22:40.047Z,96.54
2018-12-18T05:23:40.044Z,96.44
2018-12-18T05:24:40.026Z,96.64
2018-12-18T05:25:40.012Z,96.54
2018-12-18T05:26:40.004Z,96.64
2018-12-18T05:27:40.004Z,96.33
2018-12-18T05:28:39.986Z,96.44
2018-12-18T05:29:39.988Z,96.44
2018-12-18T05:30:39.959Z,96.23
2018-12-18T05:31:39.962Z,96.33
2018-12-18T05:32:39.938Z,96.33
2018-12-18T05:33:39.928Z,96.33
2018-12-18T05:34:39.938Z,96.33
2018-12-18T05:35:39.908Z,96.44
2018-12-18T05:36:39.899Z,96.54
2018-12-18T05:37:39.887Z,96.44
2018-12-18T05:38:39.875Z,96.33
2018-12-18T05:39:39.864Z,96.44
2018-12-18T05:40:39.870Z,96.33
2018-12-18T05:41:39.844Z,96.48
2018-12-18T05:42:39.836Z,96.54
2018-12-18T05:43:39.824Z,96.44
2018-12-18T05:44:39.848Z,96.44
2018-12-18T05:45:39.802Z,96.58
2018-12-18T05:46:39.788Z,96.58
2018-12-18T05:47:39.777Z,96.89
2018-12-18T05:48:39.771Z,96.23
2018-12-18T05:49:39.759Z,96.12
2018-12-18T05:50:39.759Z,95.81
2018-12-18T05:51:39.735Z,95.61
2018-12-18T05:52:39.728Z,95.50
2018-12-18T05:53:39.736Z,95.40
2018-12-18T05:54:39.704Z,95.61
2018-12-18T05:55:39.692Z,95.40
2018-12-18T05:56:39.682Z,95.71
2018-12-18T05:57:39.673Z,95.40
2018-12-18T05:58:39.665Z,95.61
2018-12-18T05:59:39.685Z,95.61
2018-12-18T06:00:39.642Z,95.92
2018-12-18T06:01:39.631Z,95.34
2018-12-18T06:02:39.617Z,95.92
2018-12-18T06:03:39.606Z,95.92
2018-12-18T06:04:39.599Z,95.40
2018-12-18T06:05:39.598Z,95.40
2018-12-18T06:06:39.575Z,96.02
2018-12-18T06:07:39.564Z,96.23
2018-12-18T06:08:39.554Z,96.23
2018-12-18T06:09:39.556Z,96.17
2018-12-18T06:10:39.533Z,95.65
2018-12-18T06:11:39.527Z,95.75
2018-12-18T06:12:39.514Z,95.65
2018-12-18T06:13:39.501Z,95.61
2018-12-18T06:14:39.523Z,95.92
2018-12-18T06:15:39.485Z,95.09
2018-12-18T06:16:39.496Z,95.71
2018-12-18T06:17:39.460Z,95.03
2018-12-18T06:18:39.449Z,95.40
2018-12-18T06:19:39.448Z,95.14
2018-12-18T06:20:39.439Z,95.40
2018-12-18T06:21:39.417Z,95.40
2018-12-18T06:22:39.415Z,95.14
2018-12-18T06:23:39.397Z,94.98
2018-12-18T06:24:39.393Z,95.92
2018-12-18T06:25:39.385Z,95.54
2018-12-18T06:26:39.365Z,95.65
2018-12-18T06:27:39.364Z,95.75
2018-12-18T06:28:39.345Z,95.75
2018-12-18T06:29:39.331Z,95.44
2018-12-18T06:30:39.319Z,95.44
2018-12-18T06:31:39.308Z,95.61
2018-12-18T06:32:39.309Z,95.65
2018-12-18T06:33:39.287Z,95.75
2018-12-18T06:34:39.278Z,95.65
2018-12-18T06:35:39.267Z,95.75
2018-12-18T06:36:39.255Z,95.96
2018-12-18T06:37:39.254Z,95.34
2018-12-18T06:38:39.235Z,95.54
2018-12-18T06:39:39.225Z,94.93
2018-12-18T06:40:39.211Z,95.65
2018-12-18T06:41:39.329Z,94.82
2018-12-18T06:42:39.194Z,95.65
2018-12-18T06:43:39.187Z,95.65
2018-12-18T06:44:39.238Z,95.54
2018-12-18T06:45:39.158Z,95.34
2018-12-18T06:46:39.147Z,95.19
2018-12-18T06:47:39.149Z,95.54
2018-12-18T06:48:39.131Z,95.54
2018-12-18T06:49:39.116Z,95.24
2018-12-18T06:50:39.106Z,95.34
2018-12-18T06:51:39.110Z,95.65
2018-12-18T06:52:39.086Z,95.44
2018-12-18T06:53:39.072Z,95.54
2018-12-18T06:54:39.095Z,94.72
2018-12-18T06:55:39.120Z,94.93
2018-12-18T06:56:39.043Z,95.75
2018-12-18T06:57:39.033Z,94.82
2018-12-18T06:58:39.022Z,94.93
2018-12-18T06:59:39.026Z,94.72
2018-12-18T07:00:39.000Z,94.76
2018-12-18T07:01:39.018Z,94.72
2018-12-18T07:02:38.976Z,94.72
2018-12-18T07:03:38.967Z,94.93
2018-12-18T07:04:38.958Z,94.93
2018-12-18T07:05:38.946Z,94.93
2018-12-18T07:06:38.937Z,94.93
2018-12-18T07:07:38.938Z,94.62
2018-12-18T07:08:38.917Z,94.72
2018-12-18T07:09:38.904Z,95.24
2018-12-18T07:10:38.913Z,95.44
2018-12-18T07:11:38.886Z,95.24
2018-12-18T07:12:38.873Z,95.65
2018-12-18T07:13:38.860Z,95.59
2018-12-18T07:14:38.852Z,95.34
2018-12-18T07:15:38.838Z,95.65
2018-12-18T07:16:38.847Z,95.54
2018-12-18T07:17:38.818Z,95.65
2018-12-18T07:18:38.809Z,95.03
2018-12-18T07:19:38.797Z,94.72
2018-12-18T07:20:38.795Z,94.51
2018-12-18T07:21:38.776Z,95.03
2018-12-18T07:22:38.778Z,94.93
2018-12-18T07:23:38.769Z,94.93
2018-12-18T07:24:38.743Z,94.62
2018-12-18T07:25:38.747Z,94.87
2018-12-18T07:26:38.725Z,94.82
2018-12-18T07:27:38.710Z,94.87
2018-12-18T07:28:38.717Z,95.03
2018-12-18T07:29:38.691Z,94.82
2018-12-18T07:30:38.680Z,95.34
2018-12-18T07:31:38.671Z,95.44
2018-12-18T07:32:38.689Z,95.34
2018-12-18T07:33:38.647Z,95.44
2018-12-18T07:34:38.639Z,94.72
2018-12-18T07:35:38.627Z,94.82
2018-12-18T07:36:38.618Z,94.72
2018-12-18T07:37:38.607Z,95.03
2018-12-18T07:38:38.610Z,95.03
2018-12-18T07:39:38.584Z,93.99
2018-12-18T07:40:38.587Z,94.10
2018-12-18T07:41:38.561Z,94.41
2018-12-18T07:42:38.552Z,94.10
2018-12-18T07:43:38.540Z,93.48
2018-12-18T07:44:38.532Z,93.58
2018-12-18T07:45:38.519Z,93.68
2018-12-18T07:46:38.525Z,93.62
2018-12-18T07:47:38.498Z,92.76
2018-12-18T07:48:38.501Z,92.85
2018-12-18T07:49:38.495Z,93.16
2018-12-18T07:50:38.480Z,92.61
2018-12-18T07:51:38.456Z,92.61
2018-12-18T07:52:38.446Z,92.85
2018-12-18T07:53:38.437Z,92.76
2018-12-18T07:54:38.426Z,92.65
2018-12-18T07:55:38.429Z,92.44
2018-12-18T07:56:38.402Z,92.85
2018-12-18T07:57:38.397Z,92.96
2018-12-18T07:58:38.382Z,92.85
2018-12-18T07:59:38.370Z,92.13
2018-12-18T08:00:38.398Z,92.71
2018-12-18T08:01:38.348Z,92.85
2018-12-18T08:02:38.337Z,92.65
2018-12-18T08:03:38.331Z,92.96
2018-12-18T08:04:38.320Z,92.65
2018-12-18T08:05:38.309Z,92.44
2018-12-18T08:06:38.316Z,92.55
2018-12-18T08:07:38.286Z,92.85
2018-12-18T08:08:38.277Z,92.55
2018-12-18T08:09:38.265Z,93.06
2018-12-18T08:10:38.253Z,92.81
2018-12-18T08:11:38.245Z,92.85
2018-12-18T08:12:38.249Z,92.96
2018-12-18T08:13:38.224Z,93.06
2018-12-18T08:14:38.214Z,93.27
2018-12-18T08:15:38.203Z,92.13
2018-12-18T08:16:38.205Z,92.55
2018-12-18T08:17:38.177Z,92.50
2018-12-18T08:18:38.167Z,92.76
2018-12-18T08:19:38.162Z,92.65
2018-12-18T08:20:38.146Z,92.61
2018-12-18T08:21:38.151Z,92.65
2018-12-18T08:22:38.125Z,92.71
2018-12-18T08:23:38.148Z,92.09
2018-12-18T08:24:38.106Z,92.44
2018-12-18T08:25:38.095Z,92.34
2018-12-18T08:26:38.082Z,92.34
2018-12-18T08:27:38.071Z,92.65
2018-12-18T08:28:38.061Z,92.24
2018-12-18T08:29:38.090Z,91.93
2018-12-18T08:30:38.045Z,92.50
2018-12-18T08:31:38.031Z,92.55
2018-12-18T08:32:38.019Z,92.91
2018-12-18T08:33:38.008Z,92.55
2018-12-18T08:34:37.996Z,93.16
2018-12-18T08:35:38.001Z,92.13
2018-12-18T08:36:37.976Z,92.55
2018-12-18T08:37:39.290Z,91.82
2018-12-18T08:38:37.954Z,91.93
2018-12-18T08:39:37.965Z,92.24
2018-12-18T08:40:37.935Z,91.88
2018-12-18T08:41:37.923Z,92.24
2018-12-18T08:42:37.913Z,91.41
2018-12-18T08:43:37.903Z,92.76
2018-12-18T08:44:38.025Z,92.09
2018-12-18T08:45:37.887Z,92.09
2018-12-18T08:46:37.869Z,91.57
2018-12-18T08:47:37.861Z,91.88
2018-12-18T08:48:37.849Z,91.47
2018-12-18T08:49:37.836Z,91.47
2018-12-18T08:50:37.839Z,91.47
2018-12-18T08:51:37.815Z,91.26
2018-12-18T08:52:37.804Z,90.99
2018-12-18T08:53:37.793Z,90.95
2018-12-18T08:54:37.792Z,91.16
2018-12-18T08:55:37.814Z,91.57
2018-12-18T08:56:37.763Z,90.74
2018-12-18T08:57:37.753Z,91.36
2018-12-18T08:58:37.740Z,91.26
2018-12-18T08:59:37.729Z,90.74
2018-12-18T09:00:37.717Z,90.33
2018-12-18T09:01:37.725Z,90.74
2018-12-18T09:02:37.698Z,91.47
2018-12-18T09:03:37.688Z,90.44
2018-12-18T09:04:37.692Z,90.74
2018-12-18T09:05:43.225Z,90.95
2018-12-18T09:06:38.657Z,91.26
2018-12-18T09:07:37.645Z,90.84
2018-12-18T09:08:37.636Z,90.84
2018-12-18T09:09:37.637Z,90.74
2018-12-18T09:10:39.879Z,90.74
2018-12-18T09:11:37.601Z,90.53
2018-12-18T09:12:37.588Z,90.95
2018-12-18T09:13:37.596Z,91.05
2018-12-18T09:14:37.568Z,91.67
2018-12-18T09:15:37.576Z,91.26
2018-12-18T09:16:37.546Z,91.53
2018-12-18T09:17:37.538Z,90.64
2018-12-18T09:18:37.543Z,90.33
2018-12-18T09:19:37.516Z,90.91
2018-12-18T09:20:37.505Z,91.22
2018-12-18T09:21:37.492Z,91.63
2018-12-18T09:22:37.485Z,91.01
2018-12-18T09:23:37.473Z,90.60
2018-12-18T09:24:37.492Z,89.83
2018-12-18T09:25:37.451Z,90.77
2018-12-18T09:26:37.441Z,89.62
2018-12-18T09:27:37.426Z,89.32
2018-12-18T09:28:37.418Z,89.83
2018-12-18T09:29:37.407Z,89.89
2018-12-18T09:30:42.438Z,89.69
2018-12-18T09:31:38.382Z,89.48
2018-12-18T09:32:37.372Z,88.76
2018-12-18T09:33:37.364Z,89.28
2018-12-18T09:34:37.353Z,88.76
2018-12-18T09:35:37.342Z,88.14
2018-12-18T09:36:37.341Z,87.68
2018-12-18T09:37:37.319Z,86.96
2018-12-18T09:38:37.312Z,88.68
2018-12-18T09:39:37.296Z,87.50
2018-12-18T09:40:37.288Z,86.68
2018-12-18T09:41:37.300Z,85.44
2018-12-18T09:42:37.266Z,84.36
2018-12-18T09:43:37.257Z,85.19
2018-12-18T09:44:37.244Z,85.19
2018-12-18T09:45:37.232Z,85.46
2018-12-18T09:46:37.223Z,85.15
2018-12-18T09:47:37.226Z,83.91
2018-12-18T09:48:37.202Z,84.43
2018-12-18T09:49:37.189Z,83.81
2018-12-18T09:50:37.180Z,83.50
2018-12-18T09:51:37.165Z,84.74
2018-12-18T09:52:37.173Z,84.12
2018-12-18T09:53:37.144Z,83.71
2018-12-18T09:54:37.135Z,84.59
2018-12-18T09:55:37.125Z,84.59
2018-12-18T09:56:37.113Z,83.56
2018-12-18T09:57:37.116Z,82.68
2018-12-18T09:58:37.091Z,83.50
2018-12-18T09:59:37.081Z,82.37
2018-12-18T10:00:37.069Z,82.37
2018-12-18T10:01:37.056Z,83.29
2018-12-18T10:02:37.071Z,82.40
2018-12-18T10:03:37.036Z,83.95
2018-12-18T10:04:37.025Z,83.54
2018-12-18T10:05:37.011Z,83.71
2018-12-18T10:06:37.003Z,83.71
2018-12-18T10:07:36.994Z,81.85
2018-12-18T10:08:36.997Z,82.68
2018-12-18T10:09:36.968Z,82.40
2018-12-18T10:10:36.957Z,82.37
2018-12-18T10:11:36.947Z,81.85
2018-12-18T10:12:36.936Z,82.68
2018-12-18T10:13:36.948Z,81.71
2018-12-18T10:14:36.914Z,81.40
2018-12-18T10:15:36.908Z,82.02
2018-12-18T10:16:36.892Z,82.74
2018-12-18T10:17:36.884Z,82.19
2018-12-18T10:18:36.894Z,81.98
2018-12-18T10:19:36.862Z,81.88
2018-12-18T10:20:36.850Z,81.33
2018-12-18T10:21:36.836Z,79.93
2018-12-18T10:22:36.829Z,80.23
2018-12-18T10:23:36.817Z,80.75
2018-12-18T10:24:36.841Z,81.57
2018-12-18T10:25:36.793Z,80.95
2018-12-18T10:26:36.784Z,79.86
2018-12-18T10:27:36.772Z,80.47
2018-12-18T10:28:36.765Z,81.05
2018-12-18T10:29:36.750Z,81.57
2018-12-18T10:30:36.761Z,82.19
2018-12-18T10:31:36.730Z,80.85
2018-12-18T10:32:36.720Z,81.51
2018-12-18T10:33:36.708Z,81.26
2018-12-18T10:34:36.699Z,81.40
2018-12-18T10:35:36.860Z,81.88
2018-12-18T10:36:36.689Z,82.29
2018-12-18T10:37:36.662Z,81.88
2018-12-18T10:38:36.655Z,81.33
2018-12-18T10:39:36.645Z,79.99
2018-12-18T10:40:36.646Z,81.53
2018-12-18T10:41:36.620Z,79.85
2018-12-18T10:42:36.632Z,79.64
2018-12-18T10:43:36.619Z,79.54
2018-12-18T10:44:36.592Z,79.64
2018-12-18T10:45:36.610Z,79.33
2018-12-18T10:46:36.578Z,79.54
2018-12-18T10:47:36.555Z,79.33
2018-12-18T10:48:36.558Z,79.95
2018-12-18T10:49:36.534Z,79.40
2018-12-18T10:50:36.521Z,78.92
2018-12-18T10:51:36.527Z,80.16
2018-12-18T10:52:36.501Z,78.61
2018-12-18T10:53:36.492Z,79.85
2018-12-18T10:54:36.479Z,79.44
2018-12-18T10:55:36.511Z,78.82
2018-12-18T10:56:36.458Z,79.23
2018-12-18T10:57:36.446Z,79.33
2018-12-18T10:58:36.437Z,79.75
2018-12-18T10:59:36.423Z,78.82
2018-12-18T11:00:36.411Z,78.82
2018-12-18T11:01:36.432Z,79.44
2018-12-18T11:02:36.391Z,79.54
2018-12-18T11:03:36.382Z,79.44
2018-12-18T11:04:36.369Z,79.44
2018-12-18T11:05:36.361Z,79.03
2018-12-18T11:06:36.348Z,79.75
2018-12-18T11:07:36.354Z,78.86
2018-12-18T11:08:36.325Z,79.79
2018-12-18T11:09:36.319Z,79.47
2018-12-18T11:10:36.306Z,79.58
2018-12-18T11:11:36.298Z,78.96
2018-12-18T11:12:36.297Z,79.58
2018-12-18T11:13:36.279Z,80.19
2018-12-18T11:14:36.275Z,80.09
2018-12-18T11:15:36.299Z,79.99
2018-12-18T11:16:37.472Z,79.68
2018-12-18T11:17:36.231Z,79.37
2018-12-18T11:18:36.219Z,78.14
2018-12-18T11:19:36.223Z,78.34
2018-12-18T11:20:36.198Z,78.55
2018-12-18T11:21:36.186Z,79.79
2018-12-18T11:22:36.175Z,78.44
2018-12-18T11:23:36.183Z,78.96
2018-12-18T11:24:36.154Z,79.79
2018-12-18T11:25:36.145Z,78.75
2018-12-18T11:26:36.133Z,78.92
2018-12-18T11:27:36.125Z,79.54
2018-12-18T11:28:36.110Z,79.33
2018-12-18T11:29:36.110Z,79.03
2018-12-18T11:30:36.088Z,78.61
2018-12-18T11:31:36.080Z,78.30
2018-12-18T11:32:36.069Z,78.65
2018-12-18T11:33:36.058Z,79.64
2018-12-18T11:34:36.061Z,78.92
2018-12-18T11:35:36.035Z,78.41
2018-12-18T11:36:36.026Z,79.03
2018-12-18T11:37:36.015Z,79.64
2018-12-18T11:38:36.004Z,78.27
2018-12-18T11:39:36.027Z,78.61
2018-12-18T11:40:35.980Z,78.61
2018-12-18T11:41:35.970Z,78.61
2018-12-18T11:42:35.957Z,78.72
2018-12-18T11:43:35.950Z,78.10
2018-12-18T11:44:35.937Z,78.10
2018-12-18T11:45:35.939Z,78.00
2018-12-18T11:46:35.950Z,78.41
2018-12-18T11:47:35.905Z,78.20
2018-12-18T11:48:35.894Z,78.30
2018-12-18T11:49:35.881Z,78.20
2018-12-18T11:50:35.873Z,78.20
2018-12-18T11:51:35.862Z,78.00
2018-12-18T11:52:35.864Z,78.61
2018-12-18T11:53:35.839Z,78.72
2018-12-18T11:54:35.844Z,78.82
2018-12-18T11:55:35.818Z,78.10
2018-12-18T11:56:35.806Z,79.54
2018-12-18T11:57:35.834Z,79.64
2018-12-18T11:58:35.784Z,78.61
2018-12-18T11:59:35.772Z,78.65
2018-12-18T12:00:35.764Z,78.96
2018-12-18T12:01:35.751Z,78.75
2018-12-18T12:02:35.741Z,78.96
2018-12-18T12:03:35.746Z,78.65
2018-12-18T12:04:35.720Z,78.75
2018-12-18T12:05:35.712Z,78.55
2018-12-18T12:06:35.698Z,78.75
2018-12-18T12:07:35.701Z,78.86
2018-12-18T12:08:35.691Z,78.58
2018-12-18T12:09:35.665Z,78.48
2018-12-18T12:10:35.656Z,78.89
2018-12-18T12:11:35.647Z,79.51
2018-12-18T12:12:35.657Z,79.00
2018-12-18T12:13:35.624Z,79.61
2018-12-18T12:14:35.613Z,79.51
2018-12-18T12:15:35.600Z,79.10
2018-12-18T12:16:35.587Z,79.82
2018-12-18T12:17:35.579Z,79.30
2018-12-18T12:18:35.585Z,78.89
2018-12-18T12:19:35.557Z,79.00
2018-12-18T12:20:35.544Z,79.61
2018-12-18T12:21:35.536Z,79.51
2018-12-18T12:22:35.524Z,79.51
2018-12-18T12:23:35.535Z,80.06
2018-12-18T12:24:35.502Z,79.44
2018-12-18T12:25:35.489Z,80.06
2018-12-18T12:26:35.482Z,79.44
2018-12-18T12:27:35.468Z,79.93
2018-12-18T12:28:35.458Z,79.65
2018-12-18T12:29:35.462Z,79.65
2018-12-18T12:30:35.438Z,79.44
2018-12-18T12:31:35.427Z,79.96
2018-12-18T12:32:35.417Z,79.75
2018-12-18T12:33:35.403Z,79.44
2018-12-18T12:34:35.416Z,79.86
2018-12-18T12:35:35.384Z,79.90
2018-12-18T12:36:35.370Z,79.96
2018-12-18T12:37:35.359Z,79.96
2018-12-18T12:38:35.349Z,79.86
2018-12-18T12:39:35.338Z,80.27
2018-12-18T12:40:35.345Z,79.96
2018-12-18T12:41:35.319Z,79.86
2018-12-18T12:42:35.309Z,79.96
2018-12-18T12:43:35.297Z,79.86
2018-12-18T12:44:35.286Z,80.10
2018-12-18T12:45:35.290Z,80.37
2018-12-18T12:46:35.263Z,81.20
2018-12-18T12:47:35.252Z,79.96
2018-12-18T12:48:35.243Z,80.16
2018-12-18T12:49:35.249Z,79.96
2018-12-18T12:50:35.223Z,80.06
2018-12-18T12:51:35.208Z,80.00
2018-12-18T12:52:35.201Z,80.16